Duluth International Airport Duluth US
ICAO: KDLH
IATA: DLH
Category: Large
Scheduled Services: Yes

Elevation: 1428 ft
TransAlt. 18000 ft.

Airport Communications:
APP/DEP:125.45
ATIS:124.1
GND:121.9
ANG COMD POST:28.89
PTD:28.89
PRINCETON RDO:122.35
TWR:118.3
UNICOM:122.95

KDLH Zoom In..

Runways:

(A) RW 03 length 5719 ft width 150 ft
---- / hdg 30

(B) RW 09 length 10162 ft width 150 ft
ILS 110.30 / hdg 90

(C) RW 21 length 5719 ft width 150 ft
---- / hdg 210

(D) RW 27 length 10162 ft width 150 ft
ILS 108.70 / hdg 270

Location; KDLH
Day. 15 / Time. 22.29 Zulu
* Altimeter: 29.95
* Temperature: 22° c. 71.6°f.
* Wind from: 310° Speed 08 kn.
Dewpoint: 17° c.
Visibility: 10 Statute Miles.
Clouds: Broken 3000 ft.
Clouds: Broken 4300 ft.

KDLH 152229Z 31008KT 10SM R09/P6000FT BKN030 BKN043 22/17 A2995 RMK A02 T02220178


Wind From 310°
Speed 08 kn.

 
 
jpsmedia.com for Web Design worldairports.se 2018   terms of use